createdAt,value
2023-01-19T00:02:46.169Z,95549.69
2023-01-19T00:05:31.199Z,95550.34
2023-01-19T00:08:16.017Z,95546.06
2023-01-19T00:11:02.003Z,95543.78
2023-01-19T00:13:47.288Z,95550.47
2023-01-19T00:16:33.479Z,95549.66
2023-01-19T00:19:18.493Z,95555.50
2023-01-19T00:22:04.502Z,95550.50
2023-01-19T00:24:49.664Z,95549.66
2023-01-19T00:27:34.506Z,95556.03
2023-01-19T00:30:21.896Z,95555.22
2023-01-19T00:33:06.829Z,95554.88
2023-01-19T00:35:51.833Z,95552.75
2023-01-19T00:38:36.686Z,95553.94
2023-01-19T00:41:21.551Z,95553.94
2023-01-19T00:44:06.450Z,95554.75
2023-01-19T00:46:52.633Z,95559.81
2023-01-19T00:49:37.959Z,95563.06
2023-01-19T00:52:22.922Z,95566.50
2023-01-19T00:55:07.751Z,95559.47
2023-01-19T00:57:52.628Z,95570.41
2023-01-19T01:00:37.522Z,95564.53
2023-01-19T01:03:32.907Z,95569.78
2023-01-19T01:06:18.097Z,95576.78
2023-01-19T01:09:02.915Z,95575.50
2023-01-19T01:11:51.466Z,95577.94
2023-01-19T01:14:36.638Z,95580.72
2023-01-19T01:17:22.671Z,95581.19
2023-01-19T01:20:07.952Z,95585.47
2023-01-19T01:22:55.357Z,95585.97
2023-01-19T01:25:40.322Z,95586.94
2023-01-19T01:28:27.527Z,95594.78
2023-01-19T01:31:13.739Z,95587.59
2023-01-19T01:33:58.750Z,95589.72
2023-01-19T01:36:45.979Z,95601.00
2023-01-19T01:39:41.236Z,95595.13
2023-01-19T01:42:30.173Z,95597.09
2023-01-19T01:45:16.559Z,95597.41
2023-01-19T01:48:01.681Z,95600.19
2023-01-19T01:50:46.581Z,95594.78
2023-01-19T01:53:31.324Z,95598.69
2023-01-19T01:56:16.279Z,95596.59
2023-01-19T01:59:01.118Z,95594.97
2023-01-19T02:01:49.048Z,95601.97
2023-01-19T02:04:34.107Z,95606.56
2023-01-19T02:07:20.106Z,95603.59
2023-01-19T02:10:05.346Z,95603.28
2023-01-19T02:12:50.360Z,95606.69
2023-01-19T02:15:35.238Z,95608.50
2023-01-19T02:18:19.985Z,95610.94
2023-01-19T02:21:04.701Z,95600.97
2023-01-19T02:23:49.621Z,95605.72
2023-01-19T02:26:34.565Z,95604.09
2023-01-19T02:29:19.497Z,95606.06
2023-01-19T02:32:04.243Z,95620.41
2023-01-19T02:34:59.407Z,95613.03
2023-01-19T02:37:44.712Z,95612.72
2023-01-19T02:40:30.678Z,95601.63
2023-01-19T02:43:22.637Z,95610.75
2023-01-19T02:46:07.956Z,95611.78
2023-01-19T02:48:52.974Z,95610.81
2023-01-19T02:51:37.803Z,95611.41
2023-01-19T02:54:26.836Z,95601.50
2023-01-19T02:57:11.949Z,95603.94
2023-01-19T02:59:56.758Z,95611.13
2023-01-19T03:02:41.718Z,95609.94
2023-01-19T03:05:27.780Z,95610.09
2023-01-19T03:08:17.379Z,95614.19
2023-01-19T03:11:02.652Z,95608.50
2023-01-19T03:13:47.453Z,95608.47
2023-01-19T03:16:33.618Z,95610.41
2023-01-19T03:19:18.787Z,95613.41
2023-01-19T03:22:03.529Z,95625.78
2023-01-19T03:24:48.491Z,95630.84
2023-01-19T03:27:33.225Z,95629.47
2023-01-19T03:30:18.008Z,95625.16
2023-01-19T03:33:03.241Z,95634.66
2023-01-19T03:35:50.618Z,95632.84
2023-01-19T03:38:41.215Z,95629.72
2023-01-19T03:41:28.329Z,95632.13
2023-01-19T03:44:13.372Z,95630.72
2023-01-19T03:46:58.335Z,95638.03
2023-01-19T03:49:43.256Z,95642.59
2023-01-19T03:52:29.262Z,95645.84
2023-01-19T03:55:15.599Z,95644.19
2023-01-19T03:58:00.873Z,95649.84
2023-01-19T04:00:45.718Z,95647.16
2023-01-19T04:03:30.617Z,95653.25
2023-01-19T04:06:15.626Z,95655.81
2023-01-19T04:09:00.487Z,95645.38
2023-01-19T04:11:45.395Z,95645.66
2023-01-19T04:14:30.300Z,95655.53
2023-01-19T04:17:16.420Z,95654.84
2023-01-19T04:20:01.695Z,95655.00
2023-01-19T04:22:48.968Z,95654.56
2023-01-19T04:25:34.164Z,95655.53
2023-01-19T04:28:19.233Z,95654.34
2023-01-19T04:31:08.048Z,95660.41
2023-01-19T04:33:55.545Z,95653.00
2023-01-19T04:36:40.643Z,95663.44
2023-01-19T04:39:27.358Z,95662.50
2023-01-19T04:42:12.565Z,95669.19
2023-01-19T04:44:57.434Z,95669.78
2023-01-19T04:47:42.357Z,95667.91
2023-01-19T04:50:31.115Z,95667.78
2023-01-19T04:53:16.486Z,95667.16
2023-01-19T04:56:02.517Z,95666.66
2023-01-19T04:58:50.121Z,95671.13
2023-01-19T05:01:35.102Z,95672.00
2023-01-19T05:04:20.050Z,95674.31
2023-01-19T05:07:04.935Z,95664.94
2023-01-19T05:09:49.851Z,95672.91
2023-01-19T05:12:34.690Z,95679.34
2023-01-19T05:15:23.375Z,95682.41
2023-01-19T05:18:09.821Z,95681.47
2023-01-19T05:21:01.971Z,95678.72
2023-01-19T05:23:47.111Z,95675.75
2023-01-19T05:26:32.024Z,95679.19
2023-01-19T05:29:17.052Z,95683.72
2023-01-19T05:32:02.045Z,95682.59
2023-01-19T05:34:48.687Z,95691.19
2023-01-19T05:37:33.863Z,95693.22
2023-01-19T05:40:25.507Z,95695.38
2023-01-19T05:43:10.628Z,95701.66
2023-01-19T05:45:55.689Z,95690.84
2023-01-19T05:48:40.483Z,95695.44
2023-01-19T05:51:26.602Z,95701.34
2023-01-19T05:54:11.821Z,95694.06
2023-01-19T05:56:56.904Z,95695.13
2023-01-19T05:59:46.614Z,95696.28
2023-01-19T06:02:31.835Z,95702.81
2023-01-19T06:05:16.753Z,95704.72
2023-01-19T06:08:01.763Z,95707.84
2023-01-19T06:10:46.684Z,95704.38
2023-01-19T06:13:32.860Z,95713.03
2023-01-19T06:16:18.893Z,95713.75
2023-01-19T06:19:04.107Z,95708.28
2023-01-19T06:21:50.664Z,95718.00
2023-01-19T06:24:35.845Z,95712.84
2023-01-19T06:27:21.227Z,95715.53
2023-01-19T06:30:07.853Z,95716.97
2023-01-19T06:32:54.087Z,95719.28
2023-01-19T06:35:40.645Z,95727.88
2023-01-19T06:38:28.685Z,95732.34
2023-01-19T06:41:13.899Z,95736.66
2023-01-19T06:44:01.726Z,95732.38
2023-01-19T06:46:46.619Z,95735.94
2023-01-19T06:49:31.555Z,95740.69
2023-01-19T06:52:18.687Z,95743.13
2023-01-19T06:55:03.693Z,95750.13
2023-01-19T06:57:48.611Z,95752.34
2023-01-19T07:00:33.974Z,95745.69
2023-01-19T07:03:29.355Z,95752.66
2023-01-19T07:06:14.416Z,95748.09
2023-01-19T07:08:59.286Z,95753.38
2023-01-19T07:11:44.180Z,95753.19
2023-01-19T07:14:29.133Z,95749.16
2023-01-19T07:17:13.930Z,95751.31
2023-01-19T07:19:58.902Z,95767.88
2023-01-19T07:25:42.738Z,95773.47
2023-01-19T07:28:29.607Z,95766.28
2023-01-19T07:31:14.970Z,95776.03
2023-01-19T07:33:59.813Z,95776.25
2023-01-19T07:36:44.708Z,95778.19
2023-01-19T07:39:29.627Z,95784.06
2023-01-19T07:42:14.416Z,95790.78
2023-01-19T07:44:59.420Z,95784.69
2023-01-19T07:47:44.241Z,95774.56
2023-01-19T07:50:29.170Z,95783.13
2023-01-19T07:53:15.230Z,95774.88
2023-01-19T07:56:00.443Z,95779.81
2023-01-19T07:58:46.570Z,95781.97
2023-01-19T08:01:31.882Z,95785.75
2023-01-19T08:04:17.163Z,95779.56
2023-01-19T08:07:02.076Z,95783.06
2023-01-19T08:09:46.796Z,95789.84
2023-01-19T08:12:34.273Z,95794.72
2023-01-19T08:15:19.307Z,95794.19
2023-01-19T08:18:08.168Z,95797.16
2023-01-19T08:20:55.714Z,95798.88
2023-01-19T08:23:40.886Z,95809.94
2023-01-19T08:26:26.250Z,95802.56
2023-01-19T08:29:11.184Z,95801.75
2023-01-19T08:31:57.295Z,95812.72
2023-01-19T08:34:44.707Z,95813.19
2023-01-19T08:37:29.674Z,95816.97
2023-01-19T08:40:14.563Z,95822.38
2023-01-19T08:42:59.917Z,95821.84
2023-01-19T08:45:44.876Z,95821.38
2023-01-19T08:48:29.780Z,95815.84
2023-01-19T08:51:14.586Z,95823.84
2023-01-19T08:53:59.565Z,95817.81
2023-01-19T08:56:44.534Z,95824.94
2023-01-19T08:59:29.415Z,95827.34
2023-01-19T09:02:14.321Z,95826.97
2023-01-19T09:04:59.063Z,95823.16
2023-01-19T09:07:45.899Z,95830.41
2023-01-19T09:10:32.769Z,95835.13
2023-01-19T09:13:18.020Z,95837.38
2023-01-19T09:16:02.788Z,95828.81
2023-01-19T09:18:48.939Z,95839.81
2023-01-19T09:21:41.604Z,95846.41
2023-01-19T09:24:26.736Z,95842.50
2023-01-19T09:27:11.532Z,95842.59
2023-01-19T09:29:56.488Z,95848.81
2023-01-19T09:32:41.652Z,95846.59
2023-01-19T09:35:29.724Z,95845.16
2023-01-19T09:38:14.779Z,95846.69
2023-01-19T09:41:00.844Z,95845.47
2023-01-19T09:43:46.158Z,95845.78
2023-01-19T09:46:31.238Z,95845.88
2023-01-19T09:49:16.046Z,95853.53
2023-01-19T09:52:00.869Z,95858.91
2023-01-19T09:54:45.670Z,95860.53
2023-01-19T09:57:30.452Z,95857.31
2023-01-19T10:00:16.568Z,95861.59
2023-01-19T10:03:02.183Z,95852.66
2023-01-19T10:05:49.464Z,95853.84
2023-01-19T10:08:34.469Z,95854.56
2023-01-19T10:11:19.421Z,95859.88
2023-01-19T10:14:04.305Z,95854.13
2023-01-19T10:16:50.486Z,95857.59
2023-01-19T10:19:35.640Z,95849.75
2023-01-19T10:22:22.484Z,95846.81
2023-01-19T10:25:07.694Z,95846.78
2023-01-19T10:27:52.460Z,95844.56
2023-01-19T10:30:37.431Z,95844.75
2023-01-19T10:33:22.295Z,95842.66
2023-01-19T10:36:07.114Z,95836.66
2023-01-19T10:38:58.162Z,95837.03
2023-01-19T10:41:43.311Z,95841.69
2023-01-19T10:44:28.400Z,95849.09
2023-01-19T10:47:13.330Z,95840.50
2023-01-19T10:49:58.204Z,95853.00
2023-01-19T10:52:46.068Z,95835.31
2023-01-19T10:55:31.224Z,95847.69
2023-01-19T10:58:17.184Z,95836.97
2023-01-19T11:01:04.306Z,95835.13
2023-01-19T11:03:49.491Z,95831.84
2023-01-19T11:06:36.120Z,95826.38
2023-01-19T11:09:21.405Z,95821.22
2023-01-19T11:12:06.228Z,95818.13
2023-01-19T11:14:51.140Z,95819.88
2023-01-19T11:17:35.959Z,95817.84
2023-01-19T11:20:22.139Z,95817.47
2023-01-19T11:23:09.203Z,95810.81
2023-01-19T11:25:54.159Z,95801.78
2023-01-19T11:28:43.615Z,95804.97
2023-01-19T11:31:34.410Z,95791.72
2023-01-19T11:34:19.620Z,95792.28
2023-01-19T11:37:04.513Z,95787.00
2023-01-19T11:39:50.557Z,95788.91
2023-01-19T11:42:35.763Z,95778.34
2023-01-19T11:45:20.640Z,95771.53
2023-01-19T11:48:05.391Z,95773.75
2023-01-19T11:50:51.549Z,95762.72
2023-01-19T11:53:39.669Z,95773.28
2023-01-19T11:56:24.748Z,95766.94
2023-01-19T11:59:09.575Z,95768.28
2023-01-19T12:01:58.811Z,95774.50
2023-01-19T12:04:43.900Z,95759.44
2023-01-19T12:07:28.816Z,95760.38
2023-01-19T12:10:13.610Z,95761.97
2023-01-19T12:12:58.397Z,95763.34
2023-01-19T12:15:43.294Z,95759.25
2023-01-19T12:18:30.024Z,95757.53
2023-01-19T12:21:17.554Z,95757.16
2023-01-19T12:24:02.603Z,95754.44
2023-01-19T12:26:47.525Z,95744.28
2023-01-19T12:29:32.554Z,95748.34
2023-01-19T12:32:17.423Z,95748.84
2023-01-19T12:35:04.186Z,95751.00
2023-01-19T12:37:49.199Z,95755.69
2023-01-19T12:40:34.034Z,95749.00
2023-01-19T12:43:18.911Z,95749.81
2023-01-19T12:46:05.040Z,95746.88
2023-01-19T12:48:51.358Z,95745.50
2023-01-19T12:51:36.411Z,95741.88
2023-01-19T12:54:21.364Z,95744.66
2023-01-19T12:57:06.224Z,95744.09
2023-01-19T12:59:52.397Z,95747.03
2023-01-19T13:02:39.055Z,95738.25
2023-01-19T13:05:24.066Z,95738.75
2023-01-19T13:08:08.923Z,95723.66
2023-01-19T13:10:53.727Z,95728.81
2023-01-19T13:13:39.786Z,95722.28
2023-01-19T13:16:24.959Z,95733.56
2023-01-19T13:19:09.800Z,95736.28
2023-01-19T13:21:55.900Z,95735.69
2023-01-19T13:24:41.093Z,95735.59
2023-01-19T13:27:26.080Z,95729.50
2023-01-19T13:30:12.364Z,95721.69
2023-01-19T13:32:59.827Z,95731.84
2023-01-19T13:35:45.008Z,95727.25
2023-01-19T13:38:29.797Z,95724.34
2023-01-19T13:41:14.716Z,95726.66
2023-01-19T13:43:59.685Z,95722.53
2023-01-19T13:46:44.611Z,95714.09
2023-01-19T13:49:31.845Z,95712.50
2023-01-19T13:52:16.894Z,95715.38
2023-01-19T13:55:03.248Z,95708.72
2023-01-19T13:57:48.751Z,95713.94
2023-01-19T14:00:34.905Z,95711.88
2023-01-19T14:03:21.548Z,95702.16
2023-01-19T14:06:06.716Z,95700.69
2023-01-19T14:08:54.640Z,95698.06
2023-01-19T14:11:41.036Z,95686.97
2023-01-19T14:14:26.086Z,95698.88
2023-01-19T14:17:10.956Z,95690.25
2023-01-19T14:19:57.157Z,95689.88
2023-01-19T14:22:42.375Z,95684.81
2023-01-19T14:25:27.344Z,95689.56
2023-01-19T14:28:13.910Z,95683.25
2023-01-19T14:30:59.307Z,95679.53
2023-01-19T14:33:44.621Z,95683.81
2023-01-19T14:36:29.379Z,95683.88
2023-01-19T14:39:18.645Z,95672.66
2023-01-19T14:42:04.898Z,95668.63
2023-01-19T14:44:49.973Z,95669.28
2023-01-19T14:47:34.853Z,95663.50
2023-01-19T14:50:23.430Z,95663.91
2023-01-19T14:53:08.609Z,95663.38
2023-01-19T14:55:53.595Z,95657.94
2023-01-19T14:58:38.449Z,95657.97
2023-01-19T15:01:24.642Z,95661.50
2023-01-19T15:04:09.816Z,95659.38
2023-01-19T15:06:54.836Z,95664.06
2023-01-19T15:09:39.669Z,95665.84
2023-01-19T15:12:25.838Z,95661.69
2023-01-19T15:15:11.111Z,95660.66
2023-01-19T15:17:56.315Z,95663.06
2023-01-19T15:20:41.447Z,95658.97
2023-01-19T15:23:26.243Z,95658.13
2023-01-19T15:26:11.160Z,95665.47
2023-01-19T15:28:56.187Z,95660.81
2023-01-19T15:31:41.017Z,95657.47
2023-01-19T15:34:25.979Z,95671.81
2023-01-19T15:37:11.027Z,95667.53
2023-01-19T15:39:55.881Z,95661.34
2023-01-19T15:42:40.728Z,95658.38
2023-01-19T15:45:25.724Z,95664.91
2023-01-19T15:48:12.297Z,95656.78
2023-01-19T15:50:57.306Z,95652.44
2023-01-19T15:53:45.204Z,95642.75
2023-01-19T15:56:30.325Z,95650.97
2023-01-19T15:59:18.138Z,95650.94
2023-01-19T16:02:03.424Z,95644.13
2023-01-19T16:04:50.822Z,95643.72
2023-01-19T16:07:35.959Z,95641.34
2023-01-19T16:10:24.199Z,95643.25
2023-01-19T16:13:09.322Z,95643.34
2023-01-19T16:15:54.239Z,95641.56
2023-01-19T16:18:40.287Z,95639.94
2023-01-19T16:21:25.366Z,95635.09
2023-01-19T16:24:10.372Z,95636.41
2023-01-19T16:26:57.597Z,95627.78
2023-01-19T16:29:42.833Z,95628.75
2023-01-19T16:32:27.637Z,95631.59
2023-01-19T16:35:12.434Z,95622.84
2023-01-19T16:37:58.755Z,95622.00
2023-01-19T16:40:47.712Z,95622.28
2023-01-19T16:43:33.122Z,95621.97
2023-01-19T16:46:18.112Z,95622.03
2023-01-19T16:49:02.828Z,95620.69
2023-01-19T16:51:48.893Z,95618.25
2023-01-19T16:54:35.218Z,95618.28
2023-01-19T16:57:22.159Z,95615.50
2023-01-19T17:00:07.411Z,95618.31
2023-01-19T17:02:52.233Z,95619.56
2023-01-19T17:05:37.132Z,95615.63
2023-01-19T17:08:22.009Z,95620.63
2023-01-19T17:11:08.275Z,95622.28
2023-01-19T17:13:54.573Z,95610.59
2023-01-19T17:16:39.877Z,95614.63
2023-01-19T17:19:24.676Z,95622.88
2023-01-19T17:22:09.320Z,95613.53
2023-01-19T17:24:54.207Z,95609.66
2023-01-19T17:27:41.296Z,95608.41
2023-01-19T17:30:27.756Z,95605.69
2023-01-19T17:33:13.046Z,95598.41
2023-01-19T17:35:57.745Z,95598.09
2023-01-19T17:38:42.623Z,95600.28
2023-01-19T17:41:27.589Z,95593.91
2023-01-19T17:44:12.483Z,95588.47
2023-01-19T17:46:59.831Z,95591.19
2023-01-19T17:49:49.016Z,95592.00
2023-01-19T17:52:35.385Z,95585.19
2023-01-19T17:55:20.937Z,95591.03
2023-01-19T17:58:06.083Z,95581.53
2023-01-19T18:00:52.884Z,95581.44
2023-01-19T18:03:38.008Z,95584.09
2023-01-19T18:06:24.690Z,95584.06
2023-01-19T18:09:09.836Z,95579.69
2023-01-19T18:11:54.608Z,95580.97
2023-01-19T18:14:41.894Z,95582.97
2023-01-19T18:17:27.088Z,95574.00
2023-01-19T18:20:12.080Z,95572.56
2023-01-19T18:22:57.273Z,95570.19
2023-01-19T18:25:44.899Z,95573.25
2023-01-19T18:28:30.089Z,95561.41
2023-01-19T18:31:15.241Z,95551.63
2023-01-19T18:34:00.490Z,95558.78
2023-01-19T18:36:46.020Z,95566.16
2023-01-19T18:39:30.917Z,95557.69
2023-01-19T18:42:15.919Z,95556.63
2023-01-19T18:45:00.982Z,95553.94
2023-01-19T18:47:45.918Z,95558.38
2023-01-19T18:50:33.152Z,95555.13
2023-01-19T18:53:21.170Z,95551.81
2023-01-19T18:56:06.338Z,95551.34
2023-01-19T18:58:51.272Z,95550.53
2023-01-19T19:01:38.482Z,95549.09
2023-01-19T19:04:23.598Z,95546.47
2023-01-19T19:07:10.394Z,95546.06
2023-01-19T19:09:55.599Z,95541.78
2023-01-19T19:12:41.753Z,95544.69
2023-01-19T19:15:28.089Z,95543.84
2023-01-19T19:18:13.724Z,95545.84
2023-01-19T19:20:58.989Z,95538.47
2023-01-19T19:23:43.799Z,95539.50
2023-01-19T19:26:28.766Z,95541.59
2023-01-19T19:29:13.527Z,95536.19
2023-01-19T19:32:00.119Z,95534.75
2023-01-19T19:34:45.174Z,95539.72
2023-01-19T19:37:32.507Z,95535.44
2023-01-19T19:40:17.585Z,95536.41
2023-01-19T19:43:02.380Z,95546.19
2023-01-19T19:45:47.335Z,95543.59
2023-01-19T19:48:32.151Z,95545.72
2023-01-19T19:51:18.763Z,95558.00
2023-01-19T19:54:04.341Z,95549.81
2023-01-19T19:56:49.198Z,95559.47
2023-01-19T19:59:34.113Z,95566.34
2023-01-19T20:02:18.964Z,95563.09
2023-01-19T20:05:03.957Z,95558.03
2023-01-19T20:07:48.822Z,95561.09
2023-01-19T20:10:36.589Z,95559.16
2023-01-19T20:13:22.992Z,95559.94
2023-01-19T20:16:12.351Z,95556.88
2023-01-19T20:18:57.353Z,95557.81
2023-01-19T20:21:42.265Z,95554.41
2023-01-19T20:24:27.111Z,95562.09
2023-01-19T20:27:12.112Z,95567.00
2023-01-19T20:29:56.945Z,95565.34
2023-01-19T20:32:41.909Z,95565.50
2023-01-19T20:35:26.814Z,95566.03
2023-01-19T20:38:11.565Z,95567.97
2023-01-19T20:40:58.803Z,95567.00
2023-01-19T20:43:44.083Z,95574.81
2023-01-19T20:46:29.435Z,95563.88
2023-01-19T20:49:14.266Z,95562.91
2023-01-19T20:51:59.201Z,95569.28
2023-01-19T20:54:44.103Z,95567.66
2023-01-19T20:57:28.942Z,95575.78
2023-01-19T21:00:17.045Z,95576.78
2023-01-19T21:03:02.137Z,95577.69
2023-01-19T21:05:47.067Z,95580.19
2023-01-19T21:08:36.378Z,95580.06
2023-01-19T21:11:22.692Z,95574.00
2023-01-19T21:14:11.474Z,95580.38
2023-01-19T21:16:56.652Z,95579.91
2023-01-19T21:19:41.737Z,95590.03
2023-01-19T21:22:26.577Z,95587.59
2023-01-19T21:25:14.112Z,95586.06
2023-01-19T21:28:01.779Z,95586.56
2023-01-19T21:30:46.907Z,95595.00
2023-01-19T21:33:31.779Z,95605.44
2023-01-19T21:36:17.629Z,95610.06
2023-01-19T21:39:02.792Z,95603.56
2023-01-19T21:41:47.641Z,95613.50
2023-01-19T21:44:32.663Z,95615.78
2023-01-19T21:47:17.625Z,95615.00
2023-01-19T21:50:02.518Z,95620.91
2023-01-19T21:52:47.437Z,95624.78
2023-01-19T21:55:32.317Z,95634.91
2023-01-19T21:58:19.223Z,95636.88
2023-01-19T22:01:04.544Z,95632.00
2023-01-19T22:03:49.859Z,95637.25
2023-01-19T22:06:34.811Z,95647.00
2023-01-19T22:09:22.671Z,95653.16
2023-01-19T22:12:09.164Z,95656.13
2023-01-19T22:14:54.470Z,95667.03
2023-01-19T22:17:39.310Z,95668.09
2023-01-19T22:20:24.192Z,95668.69
2023-01-19T22:23:11.373Z,95664.97
2023-01-19T22:25:59.390Z,95665.31
2023-01-19T22:28:44.673Z,95667.81
2023-01-19T22:31:29.595Z,95667.94
2023-01-19T22:34:14.994Z,95667.63
2023-01-19T22:36:59.766Z,95669.03
2023-01-19T22:39:44.854Z,95672.09
2023-01-19T22:42:29.830Z,95670.41
2023-01-19T22:45:15.047Z,95666.34
2023-01-19T22:48:00.566Z,95673.91
2023-01-19T22:50:45.444Z,95667.59
2023-01-19T22:53:30.328Z,95678.81
2023-01-19T22:56:15.137Z,95673.00
2023-01-19T22:59:00.013Z,95674.63
2023-01-19T23:01:44.991Z,95680.50
2023-01-19T23:04:30.128Z,95682.91
2023-01-19T23:07:17.348Z,95685.28
2023-01-19T23:10:04.691Z,95689.13
2023-01-19T23:12:51.651Z,95687.63
2023-01-19T23:15:36.867Z,95691.81
2023-01-19T23:18:22.899Z,95693.19
2023-01-19T23:21:12.656Z,95692.59
2023-01-19T23:23:59.640Z,95687.97
2023-01-19T23:26:44.696Z,95685.25
2023-01-19T23:29:39.898Z,95695.81
2023-01-19T23:32:26.207Z,95694.91
2023-01-19T23:35:11.887Z,95691.94
2023-01-19T23:37:57.038Z,95684.72
2023-01-19T23:40:41.921Z,95687.13
2023-01-19T23:43:26.871Z,95697.66
2023-01-19T23:46:11.802Z,95690.41
2023-01-19T23:48:59.541Z,95687.16
2023-01-19T23:51:44.667Z,95704.13
2023-01-19T23:54:29.571Z,95704.78
2023-01-19T23:57:14.528Z,95713.81
2023-01-19T23:59:59.288Z,95704.69
